createdAt,value
2023-03-16T00:00:19.842Z,101719.56
2023-03-16T00:02:47.170Z,101718.72
2023-03-16T00:05:14.691Z,101723.94
2023-03-16T00:07:42.467Z,101721.38
2023-03-16T00:10:13.814Z,101719.66
2023-03-16T00:12:43.786Z,101717.06
2023-03-16T00:15:12.651Z,101710.94
2023-03-16T00:17:39.747Z,101710.09
2023-03-16T00:20:07.603Z,101708.38
2023-03-16T00:22:34.784Z,101705.78
2023-03-16T00:25:02.010Z,101711.00
2023-03-16T00:27:29.521Z,101713.66
2023-03-16T00:29:57.127Z,101720.59
2023-03-16T00:32:34.058Z,101715.38
2023-03-16T00:35:02.962Z,101722.34
2023-03-16T00:37:32.835Z,101722.34
2023-03-16T00:40:00.806Z,101707.59
2023-03-16T00:42:31.642Z,101701.53
2023-03-16T00:45:01.734Z,101700.66
2023-03-16T00:47:32.805Z,101694.53
2023-03-16T00:50:01.918Z,101695.41
2023-03-16T00:52:30.151Z,101693.66
2023-03-16T00:54:58.334Z,101683.22
2023-03-16T00:57:27.710Z,101681.44
2023-03-16T00:59:55.909Z,101677.94
2023-03-16T01:02:24.601Z,101681.41
2023-03-16T01:04:54.644Z,101676.19
2023-03-16T01:07:22.297Z,101678.81
2023-03-16T01:09:49.319Z,101673.59
2023-03-16T01:12:19.249Z,101674.47
2023-03-16T01:14:47.592Z,101665.75
2023-03-16T01:17:17.263Z,101662.28
2023-03-16T01:19:45.946Z,101654.50
2023-03-16T01:22:14.150Z,101658.88
2023-03-16T01:24:45.235Z,101645.00
2023-03-16T01:27:13.091Z,101651.09
2023-03-16T01:29:43.631Z,101640.66
2023-03-16T01:32:12.170Z,101638.06
2023-03-16T01:34:39.354Z,101628.47
2023-03-16T01:37:07.143Z,101632.84
2023-03-16T01:39:51.318Z,101632.84
2023-03-16T01:42:18.380Z,101630.22
2023-03-16T01:44:54.378Z,101629.34
2023-03-16T01:47:23.309Z,101628.44
2023-03-16T01:49:56.692Z,101615.38
2023-03-16T01:52:33.698Z,101619.75
2023-03-16T01:55:13.674Z,101620.59
2023-03-16T01:57:46.794Z,101622.31
2023-03-16T02:00:19.762Z,101618.81
2023-03-16T02:03:09.825Z,101613.59
2023-03-16T02:06:15.392Z,101610.09
2023-03-16T02:08:50.106Z,101603.97
2023-03-16T02:11:22.469Z,101608.31
2023-03-16T02:14:10.926Z,101597.03
2023-03-16T02:16:40.819Z,101599.59
2023-03-16T02:19:26.463Z,101597.00
2023-03-16T02:22:07.698Z,101591.78
2023-03-16T02:24:37.511Z,101590.03
2023-03-16T02:27:12.379Z,101587.38
2023-03-16T02:30:07.781Z,101581.25
2023-03-16T02:32:45.979Z,101579.50
2023-03-16T02:35:14.329Z,101583.00
2023-03-16T02:37:42.192Z,101583.88
2023-03-16T02:40:29.605Z,101582.16
2023-03-16T02:43:22.840Z,101562.16
2023-03-16T02:46:05.257Z,101568.25
2023-03-16T02:48:51.154Z,101569.13
2023-03-16T02:51:20.733Z,101563.03
2023-03-16T02:53:47.738Z,101559.59
2023-03-16T02:56:15.088Z,101564.81
2023-03-16T02:58:42.069Z,101564.81
2023-03-16T03:01:14.181Z,101552.66
2023-03-16T03:03:41.204Z,101547.44
2023-03-16T03:06:08.275Z,101554.41
2023-03-16T03:08:37.552Z,101555.28
2023-03-16T03:11:04.891Z,101563.13
2023-03-16T03:13:31.874Z,101557.03
2023-03-16T03:15:59.468Z,101563.13
2023-03-16T03:18:28.215Z,101559.69
2023-03-16T03:20:55.465Z,101555.34
2023-03-16T03:23:22.562Z,101556.22
2023-03-16T03:25:49.558Z,101557.06
2023-03-16T03:28:17.897Z,101557.91
2023-03-16T03:30:45.644Z,101562.28
2023-03-16T03:33:13.014Z,101555.31
2023-03-16T03:35:42.085Z,101554.41
2023-03-16T03:38:09.416Z,101550.91
2023-03-16T03:40:36.474Z,101555.22
2023-03-16T03:43:06.337Z,101553.47
2023-03-16T03:45:37.764Z,101543.91
2023-03-16T03:48:05.388Z,101553.47
2023-03-16T03:50:33.959Z,101543.03
2023-03-16T03:53:29.974Z,101540.41
2023-03-16T03:56:23.871Z,101535.19
2023-03-16T03:58:51.108Z,101534.28
2023-03-16T04:01:32.970Z,101541.22
2023-03-16T04:04:00.094Z,101528.16
2023-03-16T04:06:27.186Z,101524.66
2023-03-16T04:08:55.482Z,101521.16
2023-03-16T04:11:26.220Z,101528.13
2023-03-16T04:13:54.547Z,101515.09
2023-03-16T04:16:22.178Z,101518.56
2023-03-16T04:18:56.618Z,101516.78
2023-03-16T04:21:24.677Z,101511.59
2023-03-16T04:23:54.907Z,101524.63
2023-03-16T04:26:29.568Z,101520.28
2023-03-16T04:28:58.218Z,101526.38
2023-03-16T04:31:25.991Z,101535.06
2023-03-16T04:33:55.932Z,101518.56
2023-03-16T04:36:24.206Z,101522.06
2023-03-16T04:38:51.987Z,101515.09
2023-03-16T04:41:19.816Z,101507.25
2023-03-16T04:44:00.857Z,101515.13
2023-03-16T04:46:29.504Z,101513.38
2023-03-16T04:48:58.724Z,101508.16
2023-03-16T04:51:28.678Z,101508.16
2023-03-16T04:54:18.451Z,101508.16
2023-03-16T04:56:45.570Z,101502.09
2023-03-16T04:59:45.342Z,101500.38
2023-03-16T05:02:32.586Z,101504.75
2023-03-16T05:05:01.528Z,101496.91
2023-03-16T05:07:29.895Z,101496.97
2023-03-16T05:09:57.918Z,101484.81
2023-03-16T05:12:25.027Z,101486.53
2023-03-16T05:14:56.482Z,101496.97
2023-03-16T05:17:32.503Z,101496.16
2023-03-16T05:19:59.962Z,101499.63
2023-03-16T05:22:27.771Z,101500.50
2023-03-16T05:25:20.305Z,101499.63
2023-03-16T05:27:54.265Z,101498.78
2023-03-16T05:30:29.456Z,101487.50
2023-03-16T05:32:58.852Z,101495.31
2023-03-16T05:35:28.150Z,101488.38
2023-03-16T05:37:59.807Z,101487.50
2023-03-16T05:40:29.209Z,101490.13
2023-03-16T05:43:06.425Z,101492.75
2023-03-16T05:45:38.525Z,101487.53
2023-03-16T05:48:11.338Z,101479.72
2023-03-16T05:50:44.264Z,101487.56
2023-03-16T05:53:13.464Z,101488.50
2023-03-16T05:55:41.519Z,101484.22
2023-03-16T05:58:11.854Z,101489.56
2023-03-16T06:00:41.202Z,101490.56
2023-03-16T06:03:19.997Z,101488.97
2023-03-16T06:05:47.524Z,101483.78
2023-03-16T06:08:16.251Z,101480.34
2023-03-16T06:10:48.380Z,101474.28
2023-03-16T06:13:17.762Z,101470.78
2023-03-16T06:15:44.945Z,101470.84
2023-03-16T06:18:13.680Z,101467.31
2023-03-16T06:20:40.858Z,101475.13
2023-03-16T06:23:07.937Z,101465.53
2023-03-16T06:25:34.968Z,101470.69
2023-03-16T06:28:04.210Z,101469.81
2023-03-16T06:30:31.287Z,101475.03
2023-03-16T06:33:00.200Z,101476.78
2023-03-16T06:35:27.284Z,101468.91
2023-03-16T06:38:07.496Z,101468.91
2023-03-16T06:40:55.198Z,101485.44
2023-03-16T06:43:23.590Z,101482.84
2023-03-16T06:45:51.865Z,101481.97
2023-03-16T06:48:19.631Z,101486.34
2023-03-16T06:50:47.535Z,101487.22
2023-03-16T06:53:19.965Z,101485.50
2023-03-16T06:55:47.095Z,101484.66
2023-03-16T06:58:14.520Z,101480.31
2023-03-16T07:00:42.228Z,101488.16
2023-03-16T07:03:09.252Z,101489.00
2023-03-16T07:05:38.604Z,101485.50
2023-03-16T07:08:06.158Z,101483.75
2023-03-16T07:10:33.198Z,101486.38
2023-03-16T07:13:00.265Z,101489.84
2023-03-16T07:15:27.282Z,101490.72
2023-03-16T07:17:56.754Z,101493.31
2023-03-16T07:20:27.048Z,101489.00
2023-03-16T07:22:54.238Z,101474.19
2023-03-16T07:25:21.429Z,101489.00
2023-03-16T07:27:53.421Z,101482.94
2023-03-16T07:30:26.536Z,101478.59
2023-03-16T07:32:54.208Z,101476.81
2023-03-16T07:35:24.397Z,101474.22
2023-03-16T07:37:51.702Z,101475.09
2023-03-16T07:40:20.019Z,101475.13
2023-03-16T07:42:47.078Z,101466.41
2023-03-16T07:45:17.969Z,101479.50
2023-03-16T07:47:45.907Z,101485.63
2023-03-16T07:50:24.318Z,101482.13
2023-03-16T07:52:52.531Z,101480.44
2023-03-16T07:55:20.163Z,101478.72
2023-03-16T07:57:48.279Z,101477.84
2023-03-16T08:00:23.846Z,101487.41
2023-03-16T08:02:51.954Z,101483.06
2023-03-16T08:05:19.017Z,101479.59
2023-03-16T08:07:51.549Z,101486.53
2023-03-16T08:10:24.044Z,101479.59
2023-03-16T08:13:14.438Z,101472.63
2023-03-16T08:16:02.087Z,101467.41
2023-03-16T08:18:35.426Z,101471.75
2023-03-16T08:21:03.466Z,101470.00
2023-03-16T08:23:33.615Z,101465.66
2023-03-16T08:26:01.211Z,101475.25
2023-03-16T08:28:28.793Z,101459.56
2023-03-16T08:30:58.553Z,101458.72
2023-03-16T08:33:48.289Z,101463.06
2023-03-16T08:36:19.014Z,101450.88
2023-03-16T08:39:06.135Z,101459.56
2023-03-16T08:41:40.390Z,101448.25
2023-03-16T08:44:12.964Z,101461.34
2023-03-16T08:46:40.794Z,101454.31
2023-03-16T08:49:08.774Z,101449.03
2023-03-16T08:51:37.022Z,101439.34
2023-03-16T08:54:04.262Z,101439.25
2023-03-16T08:56:32.437Z,101428.72
2023-03-16T08:58:59.788Z,101415.56
2023-03-16T09:01:27.576Z,101426.94
2023-03-16T09:03:55.078Z,101425.19
2023-03-16T09:06:22.525Z,101429.56
2023-03-16T09:08:49.703Z,101431.28
2023-03-16T09:11:20.020Z,101435.59
2023-03-16T09:13:47.375Z,101429.41
2023-03-16T09:16:16.283Z,101430.16
2023-03-16T09:18:43.600Z,101422.22
2023-03-16T09:21:15.025Z,101418.69
2023-03-16T09:23:45.424Z,101416.91
2023-03-16T09:26:15.208Z,101413.38
2023-03-16T09:28:42.910Z,101413.34
2023-03-16T09:31:18.280Z,101415.91
2023-03-16T09:33:46.369Z,101416.81
2023-03-16T09:36:14.581Z,101409.84
2023-03-16T09:38:43.866Z,101412.44
2023-03-16T09:41:48.681Z,101404.53
2023-03-16T09:44:51.551Z,101407.16
2023-03-16T09:47:28.548Z,101407.91
2023-03-16T09:50:00.325Z,101408.69
2023-03-16T09:52:50.540Z,101419.09
2023-03-16T09:55:31.285Z,101411.91
2023-03-16T09:58:01.163Z,101399.34
2023-03-16T10:00:43.477Z,101403.50
2023-03-16T10:03:26.595Z,101398.88
2023-03-16T10:06:05.159Z,101400.41
2023-03-16T10:08:45.548Z,101404.59
2023-03-16T10:11:33.031Z,101398.34
2023-03-16T10:14:25.538Z,101387.69
2023-03-16T10:17:03.746Z,101385.78
2023-03-16T10:19:45.958Z,101375.13
2023-03-16T10:22:22.144Z,101367.00
2023-03-16T10:25:22.652Z,101365.13
2023-03-16T10:27:50.899Z,101365.84
2023-03-16T10:30:26.001Z,101370.97
2023-03-16T10:32:53.820Z,101369.94
2023-03-16T10:35:55.520Z,101357.44
2023-03-16T10:38:46.630Z,101344.06
2023-03-16T10:41:29.876Z,101356.13
2023-03-16T10:44:21.549Z,101349.72
2023-03-16T10:46:58.953Z,101346.81
2023-03-16T10:49:42.304Z,101349.97
2023-03-16T10:52:23.933Z,101348.69
2023-03-16T10:54:56.935Z,101357.00
2023-03-16T10:57:33.964Z,101345.16
2023-03-16T11:00:21.000Z,101342.28
2023-03-16T11:02:51.061Z,101330.00
2023-03-16T11:05:17.992Z,101333.47
2023-03-16T11:07:51.037Z,101332.00
2023-03-16T11:10:56.248Z,101337.09
2023-03-16T11:13:45.175Z,101331.91
2023-03-16T11:16:41.570Z,101333.81
2023-03-16T11:19:31.188Z,101328.25
2023-03-16T11:22:15.110Z,101320.91
2023-03-16T11:25:03.112Z,101311.03
2023-03-16T11:27:42.008Z,101312.84
2023-03-16T11:30:33.881Z,101300.69
2023-03-16T11:33:01.812Z,101284.03
2023-03-16T11:36:09.048Z,101285.09
2023-03-16T11:38:59.363Z,101276.47
2023-03-16T11:41:58.956Z,101294.31
2023-03-16T11:44:55.749Z,101277.63
2023-03-16T11:48:03.497Z,101276.00
2023-03-16T11:51:09.511Z,101278.81
2023-03-16T11:54:16.631Z,101271.72
2023-03-16T11:56:52.772Z,101261.91
2023-03-16T12:00:01.389Z,101267.03
2023-03-16T12:03:31.315Z,101252.16
2023-03-16T12:06:44.933Z,101250.34
2023-03-16T12:09:51.015Z,101251.19
2023-03-16T12:12:37.566Z,101250.03
2023-03-16T12:15:32.589Z,101239.25
2023-03-16T12:18:06.752Z,101246.03
2023-03-16T12:20:50.344Z,101226.25
2023-03-16T12:23:29.030Z,101232.91
2023-03-16T12:26:00.123Z,101224.53
2023-03-16T12:28:33.330Z,101233.28
2023-03-16T12:31:17.994Z,101219.97
2023-03-16T12:33:59.420Z,101213.69
2023-03-16T12:36:46.363Z,101209.97
2023-03-16T12:39:53.511Z,101212.63
2023-03-16T12:42:35.779Z,101201.03
2023-03-16T12:45:14.240Z,101200.84
2023-03-16T12:47:59.622Z,101202.19
2023-03-16T12:50:27.275Z,101194.91
2023-03-16T12:52:54.627Z,101185.91
2023-03-16T12:55:34.594Z,101170.94
2023-03-16T12:58:07.567Z,101167.53
2023-03-16T13:00:41.337Z,101161.25
2023-03-16T13:03:23.176Z,101161.44
2023-03-16T13:05:55.804Z,101160.81
2023-03-16T13:08:23.515Z,101162.41
2023-03-16T13:11:10.077Z,101149.03
2023-03-16T13:14:01.785Z,101138.31
2023-03-16T13:16:37.531Z,101135.56
2023-03-16T13:19:38.448Z,101118.34
2023-03-16T13:22:32.364Z,101112.47
2023-03-16T13:24:59.688Z,101121.78
2023-03-16T13:27:34.357Z,101116.94
2023-03-16T13:30:24.443Z,101117.38
2023-03-16T13:33:22.070Z,101112.41
2023-03-16T13:35:52.674Z,101111.88
2023-03-16T13:38:25.842Z,101106.44
2023-03-16T13:40:57.580Z,101110.75
2023-03-16T13:43:28.946Z,101114.09
2023-03-16T13:45:56.543Z,101103.94
2023-03-16T13:48:24.117Z,101090.16
2023-03-16T13:50:57.940Z,101094.03
2023-03-16T13:53:32.896Z,101087.38
2023-03-16T13:56:04.370Z,101092.31
2023-03-16T13:58:40.151Z,101080.38
2023-03-16T14:01:33.311Z,101080.94
2023-03-16T14:04:11.918Z,101077.03
2023-03-16T14:06:41.290Z,101066.81
2023-03-16T14:09:22.276Z,101049.03
2023-03-16T14:11:49.330Z,101065.03
2023-03-16T14:14:25.343Z,101050.03
2023-03-16T14:16:54.744Z,101044.94
2023-03-16T14:19:32.308Z,101034.44
2023-03-16T14:22:06.664Z,101030.38
2023-03-16T14:24:39.265Z,101032.34
2023-03-16T14:27:16.191Z,101032.22
2023-03-16T14:29:45.225Z,101022.41
2023-03-16T14:32:30.191Z,101019.09
2023-03-16T14:35:22.017Z,101011.88
2023-03-16T14:37:52.048Z,101011.13
2023-03-16T14:40:31.799Z,101015.66
2023-03-16T14:43:04.668Z,101008.63
2023-03-16T14:45:34.879Z,101003.16
2023-03-16T14:48:17.128Z,100995.34
2023-03-16T14:50:44.799Z,100990.88
2023-03-16T14:53:11.912Z,100995.56
2023-03-16T14:55:39.507Z,100988.75
2023-03-16T14:58:06.799Z,100993.19
2023-03-16T15:00:42.754Z,100985.16
2023-03-16T15:03:17.706Z,100983.22
2023-03-16T15:05:50.342Z,100983.94
2023-03-16T15:08:31.403Z,100985.81
2023-03-16T15:11:04.007Z,100977.13
2023-03-16T15:13:47.145Z,100982.94
2023-03-16T15:16:15.002Z,100980.72
2023-03-16T15:18:42.736Z,100972.47
2023-03-16T15:21:15.436Z,100965.19
2023-03-16T15:23:44.624Z,100964.69
2023-03-16T15:26:15.474Z,100961.44
2023-03-16T15:28:42.933Z,100954.81
2023-03-16T15:31:17.274Z,100955.09
2023-03-16T15:33:45.523Z,100955.28
2023-03-16T15:36:22.148Z,100950.28
2023-03-16T15:38:53.505Z,100948.78
2023-03-16T15:41:21.365Z,100933.59
2023-03-16T15:43:48.447Z,100929.91
2023-03-16T15:46:16.585Z,100927.78
2023-03-16T15:48:44.383Z,100932.88
2023-03-16T15:51:22.498Z,100934.47
2023-03-16T15:54:06.008Z,100934.19
2023-03-16T15:56:53.131Z,100926.25
2023-03-16T15:59:23.359Z,100929.56
2023-03-16T16:01:51.796Z,100930.50
2023-03-16T16:04:23.605Z,100929.59
2023-03-16T16:06:55.638Z,100927.25
2023-03-16T16:09:23.754Z,100923.19
2023-03-16T16:11:51.429Z,100926.47
2023-03-16T16:14:26.543Z,100922.56
2023-03-16T16:16:54.332Z,100923.81
2023-03-16T16:19:21.762Z,100931.34
2023-03-16T16:21:48.825Z,100925.72
2023-03-16T16:24:18.201Z,100916.50
2023-03-16T16:26:53.766Z,100920.50
2023-03-16T16:29:32.062Z,100919.19
2023-03-16T16:31:59.959Z,100913.53
2023-03-16T16:34:28.035Z,100912.06
2023-03-16T16:36:57.250Z,100914.09
2023-03-16T16:39:25.309Z,100912.53
2023-03-16T16:41:56.312Z,100911.72
2023-03-16T16:44:29.028Z,100917.06
2023-03-16T16:46:57.495Z,100921.50
2023-03-16T16:49:30.487Z,100904.06
2023-03-16T16:51:58.964Z,100909.50
2023-03-16T16:54:31.179Z,100914.97
2023-03-16T16:57:00.634Z,100914.34
2023-03-16T16:59:36.921Z,100915.34
2023-03-16T17:02:30.856Z,100912.22
2023-03-16T17:04:58.338Z,100912.59
2023-03-16T17:07:25.809Z,100920.03
2023-03-16T17:09:52.762Z,100924.75
2023-03-16T17:12:23.223Z,100926.91
2023-03-16T17:14:51.119Z,100913.28
2023-03-16T17:17:19.027Z,100911.91
2023-03-16T17:19:46.965Z,100914.91
2023-03-16T17:22:24.751Z,100914.41
2023-03-16T17:24:54.014Z,100920.00
2023-03-16T17:27:29.424Z,100920.44
2023-03-16T17:29:57.697Z,100927.75
2023-03-16T17:32:25.731Z,100919.25
2023-03-16T17:34:52.869Z,100925.72
2023-03-16T17:37:23.228Z,100919.84
2023-03-16T17:39:51.191Z,100919.31
2023-03-16T17:42:20.392Z,100911.81
2023-03-16T17:44:51.202Z,100914.81
2023-03-16T17:47:25.498Z,100911.75
2023-03-16T17:49:53.479Z,100916.50
2023-03-16T17:52:26.890Z,100922.09
2023-03-16T17:54:54.746Z,100919.78
2023-03-16T17:57:33.656Z,100915.59
2023-03-16T18:00:08.879Z,100918.50
2023-03-16T18:02:54.069Z,100925.72
2023-03-16T18:05:39.909Z,100931.25
2023-03-16T18:08:26.151Z,100927.03
2023-03-16T18:11:02.195Z,100921.03
2023-03-16T18:13:36.095Z,100925.56
2023-03-16T18:16:05.805Z,100929.25
2023-03-16T18:18:38.280Z,100929.38
2023-03-16T18:21:05.654Z,100917.09
2023-03-16T18:23:35.795Z,100922.47
2023-03-16T18:26:07.022Z,100917.22
2023-03-16T18:28:35.015Z,100910.22
2023-03-16T18:31:05.041Z,100913.81
2023-03-16T18:33:39.219Z,100907.69
2023-03-16T18:36:17.711Z,100911.28
2023-03-16T18:38:50.483Z,100916.63
2023-03-16T18:41:23.698Z,100917.56
2023-03-16T18:43:54.979Z,100922.03
2023-03-16T18:46:34.299Z,100920.31
2023-03-16T18:49:29.442Z,100922.09
2023-03-16T18:51:56.637Z,100920.34
2023-03-16T18:54:30.632Z,100915.09
2023-03-16T18:57:01.071Z,100910.72
2023-03-16T18:59:28.177Z,100908.16
2023-03-16T19:01:55.609Z,100911.69
2023-03-16T19:04:30.720Z,100910.84
2023-03-16T19:06:58.269Z,100922.19
2023-03-16T19:09:31.923Z,100922.16
2023-03-16T19:11:59.499Z,100925.63
2023-03-16T19:14:32.400Z,100924.78
2023-03-16T19:16:59.419Z,100923.91
2023-03-16T19:19:27.388Z,100918.72
2023-03-16T19:22:09.747Z,100907.38
2023-03-16T19:24:50.532Z,100899.53
2023-03-16T19:27:25.645Z,100893.56
2023-03-16T19:29:54.678Z,100892.75
2023-03-16T19:32:22.051Z,100893.66
2023-03-16T19:34:49.442Z,100884.97
2023-03-16T19:37:19.760Z,100885.06
2023-03-16T19:39:47.182Z,100877.28
2023-03-16T19:42:36.329Z,100874.69
2023-03-16T19:45:05.117Z,100864.28
2023-03-16T19:47:36.608Z,100870.44
2023-03-16T19:50:14.773Z,100875.69
2023-03-16T19:52:42.072Z,100876.63
2023-03-16T19:55:14.420Z,100873.16
2023-03-16T19:57:42.593Z,100867.84
2023-03-16T20:00:19.582Z,100870.44
2023-03-16T20:02:47.370Z,100859.91
2023-03-16T20:05:29.024Z,100857.28
2023-03-16T20:08:01.385Z,100861.69
2023-03-16T20:10:32.589Z,100855.59
2023-03-16T20:13:01.745Z,100855.50
2023-03-16T20:15:33.240Z,100846.81
2023-03-16T20:18:00.337Z,100853.81
2023-03-16T20:20:34.371Z,100850.34
2023-03-16T20:23:01.463Z,100857.38
2023-03-16T20:25:33.293Z,100853.91
2023-03-16T20:28:03.833Z,100851.28
2023-03-16T20:30:31.803Z,100846.88
2023-03-16T20:32:58.870Z,100852.19
2023-03-16T20:35:31.069Z,100854.81
2023-03-16T20:37:58.420Z,100841.69
2023-03-16T20:40:26.147Z,100836.47
2023-03-16T20:42:53.635Z,100835.63
2023-03-16T20:45:27.820Z,100837.47
2023-03-16T20:47:54.957Z,100830.56
2023-03-16T20:50:29.808Z,100827.13
2023-03-16T20:52:57.491Z,100816.81
2023-03-16T20:55:28.986Z,100808.94
2023-03-16T20:57:57.490Z,100805.56
2023-03-16T21:00:36.443Z,100808.25
2023-03-16T21:03:16.876Z,100804.88
2023-03-16T21:05:46.044Z,100803.19
2023-03-16T21:08:14.318Z,100808.56
2023-03-16T21:10:44.887Z,100797.22
2023-03-16T21:13:21.289Z,100802.53
2023-03-16T21:15:50.787Z,100793.91
2023-03-16T21:18:21.551Z,100796.63
2023-03-16T21:20:50.244Z,100796.66
2023-03-16T21:23:23.314Z,100802.84
2023-03-16T21:25:55.749Z,100802.06
2023-03-16T21:28:27.774Z,100800.34
2023-03-16T21:30:57.763Z,100794.28
2023-03-16T21:33:35.765Z,100789.03
2023-03-16T21:36:08.080Z,100783.78
2023-03-16T21:38:35.380Z,100778.63
2023-03-16T21:41:02.417Z,100783.88
2023-03-16T21:43:29.581Z,100788.28
2023-03-16T21:45:57.433Z,100783.94
2023-03-16T21:48:38.058Z,100783.13
2023-03-16T21:51:31.198Z,100786.69
2023-03-16T21:53:59.070Z,100789.38
2023-03-16T21:56:26.503Z,100786.78
2023-03-16T21:58:54.712Z,100785.09
2023-03-16T22:01:29.371Z,100799.94
2023-03-16T22:04:13.732Z,100782.56
2023-03-16T22:06:42.933Z,100782.50
2023-03-16T22:09:18.614Z,100780.78
2023-03-16T22:11:46.175Z,100779.03
2023-03-16T22:14:13.224Z,100779.09
2023-03-16T22:16:41.373Z,100771.25
2023-03-16T22:19:14.614Z,100766.91
2023-03-16T22:21:44.912Z,100769.56
2023-03-16T22:24:22.085Z,100764.38
2023-03-16T22:26:50.937Z,100764.41
2023-03-16T22:29:30.381Z,100757.44
2023-03-16T22:32:14.720Z,100754.84
2023-03-16T22:34:45.182Z,100746.97
2023-03-16T22:37:22.976Z,100729.47
2023-03-16T22:39:51.285Z,100718.13
2023-03-16T22:42:33.602Z,100726.00
2023-03-16T22:45:02.162Z,100753.97
2023-03-16T22:47:36.830Z,100767.97
2023-03-16T22:50:04.183Z,100751.34
2023-03-16T22:52:37.183Z,100747.78
2023-03-16T22:55:07.048Z,100764.38
2023-03-16T22:57:34.494Z,100760.00
2023-03-16T23:00:03.913Z,100759.06
2023-03-16T23:02:31.697Z,100764.28
2023-03-16T23:04:58.787Z,100758.94
2023-03-16T23:07:25.811Z,100747.56
2023-03-16T23:09:52.838Z,100744.00
2023-03-16T23:12:22.040Z,100747.47
2023-03-16T23:14:49.375Z,100748.25
2023-03-16T23:17:22.349Z,100756.09
2023-03-16T23:19:49.527Z,100755.22
2023-03-16T23:22:16.994Z,100740.34
2023-03-16T23:24:44.116Z,100746.47
2023-03-16T23:27:19.120Z,100735.13
2023-03-16T23:29:46.641Z,100733.34
2023-03-16T23:32:17.067Z,100747.38
2023-03-16T23:34:44.388Z,100755.25
2023-03-16T23:37:11.976Z,100744.75
2023-03-16T23:39:39.825Z,100740.47
2023-03-16T23:42:07.506Z,100750.97
2023-03-16T23:44:35.190Z,100745.78
2023-03-16T23:47:02.339Z,100738.84
2023-03-16T23:49:36.814Z,100737.16
2023-03-16T23:52:03.930Z,100749.47
2023-03-16T23:54:32.786Z,100746.91
2023-03-16T23:56:59.748Z,100744.28
2023-03-16T23:59:27.752Z,100732.09
